Clayton, Alabama
Current Conditions -  °F | °C
As of 9:58 AM on Wednesday 22 Oct 2014 (Local Time) from KEUF Reporting Station
Clear Clear  
Wind Chill: 63°   Ceiling: Unl
Heat Index: 63°   Visibility: 10mi
Dew Point: 45°   Wind: 5mph
Humidity: 52%   Direction: 40°NE
Pressure: 30.1"   Gusts: NA
Location:  31.88°N, 85.45°W
Report Text: KEUF 221458Z AUTO 04004KT 10SM CLR 17/07 A3010 RMK AO2 SLP192 T01720072 50008 $
Loading
Personal Weather Stations






























Interactive Weather Map
Tropical Storm Tracking
New forecast layout! Learn more

10-Day Weather Forecast

Advertisements
Track Severe Weather on mobile